Time;durP1;ratioP1;P1;durP2;ratioP2;P2;SDS_P1;SDS_P2;PMS_P1;PMS_P2;Temp;Humidity;BMP_temperature;BMP_pressure;BME280_temperature;BME280_humidity;BME280_pressure;Samples;Min_cycle;Max_cycle;Signal;HPM_P1;HPM_P2
2023/05/27 00:02:21;;;;;;;17.70;3.40;;;;;;;-145.18;100.00;46588.13;5041502;28;20055;-63
2023/05/27 00:04:47;;;;;;;15.83;3.50;;;;;;;-145.18;100.00;46590.06;5036750;28;20044;-63
2023/05/27 00:07:12;;;;;;;11.40;3.17;;;;;;;-145.18;100.00;46588.13;5035744;28;20475;-63
2023/05/27 00:09:38;;;;;;;16.37;3.60;;;;;;;-145.18;100.00;46582.25;5055443;28;20398;-62
2023/05/27 00:12:04;;;;;;;7.27;2.90;;;;;;;-145.18;100.00;46623.28;5056020;28;20474;-62
2023/05/27 00:14:29;;;;;;;12.93;3.20;;;;;;;-145.18;100.00;46578.34;5055819;28;20482;-62
2023/05/27 00:16:55;;;;;;;17.80;3.47;;;;;;;-145.18;100.00;46580.31;5055528;28;20555;-62
2023/05/27 00:19:20;;;;;;;17.33;4.23;;;;;;;-145.18;100.00;46619.38;5055617;28;20037;-62
2023/05/27 00:21:46;;;;;;;16.67;3.43;;;;;;;-145.18;100.00;46578.34;5055751;28;20040;-62
2023/05/27 00:24:11;;;;;;;19.03;3.93;;;;;;;-145.18;100.00;46572.50;5049812;28;20425;-63
2023/05/27 00:26:38;;;;;;;11.10;3.40;;;;;;;-145.18;100.00;46566.63;5017861;28;20067;-63
2023/05/27 00:29:04;;;;;;;17.57;3.83;;;;;;;-145.18;100.00;46617.41;5035728;28;20083;-62
2023/05/27 00:31:29;;;;;;;18.03;3.40;;;;;;;-145.18;100.00;46570.53;5035554;28;20270;-62
2023/05/27 00:33:55;;;;;;;8.00;2.53;;;;;;;-145.18;100.00;46617.41;5017471;28;20037;-63
2023/05/27 00:36:20;;;;;;;18.57;3.10;;;;;;;-145.18;100.00;46570.53;5035637;28;20120;-63
2023/05/27 00:38:46;;;;;;;23.30;4.17;;;;;;;-145.18;100.00;46615.47;5035398;28;20033;-62
2023/05/27 00:41:12;;;;;;;10.57;3.07;;;;;;;-145.18;100.00;46568.59;5035208;28;20030;-63
2023/05/27 00:43:38;;;;;;;9.17;3.03;;;;;;;-145.18;100.00;46562.72;5035485;28;20040;-62
2023/05/27 00:46:04;;;;;;;13.83;3.43;;;;;;;-145.18;100.00;46570.53;5034831;28;20286;-63
2023/05/27 00:48:29;;;;;;;16.87;3.30;;;;;;;-145.18;100.00;46562.72;5035419;28;20037;-63
2023/05/27 00:50:55;;;;;;;9.73;3.13;;;;;;;-145.18;100.00;46564.69;5034875;28;20108;-63
2023/05/27 00:53:21;;;;;;;14.77;2.90;;;;;;;-145.18;100.00;46562.72;5017933;28;20056;-63
2023/05/27 00:55:47;;;;;;;10.00;3.83;;;;;;;-145.18;100.00;46568.59;5035214;28;20450;-63
2023/05/27 00:58:13;;;;;;;11.33;3.37;;;;;;;-145.18;100.00;46566.63;5034993;28;20357;-63
2023/05/27 01:00:38;;;;;;;12.10;3.00;;;;;;;-145.18;100.00;46562.72;5035084;28;20025;-63
2023/05/27 01:03:07;;;;;;;11.60;3.00;;;;;;;-145.18;100.00;46568.59;5034756;28;20399;-62
2023/05/27 01:05:33;;;;;;;14.77;3.47;;;;;;;-145.18;100.00;46609.59;5035054;28;20033;-62
2023/05/27 01:08:31;;;;;;;14.50;3.73;;;;;;;-145.18;100.00;46568.59;5050917;28;20270;-62
2023/05/27 01:10:56;;;;;;;11.47;3.10;;;;;;;-145.18;100.00;46609.59;5054085;28;20305;-63
2023/05/27 01:13:38;;;;;;;19.13;3.30;;;;;;;-145.18;100.00;46617.41;5046689;28;20684;-63
2023/05/27 01:16:12;;;;;;;13.07;3.80;;;;;;;-145.18;100.00;46619.38;5034808;28;20108;-63
2023/05/27 01:18:44;;;;;;;11.90;2.90;;;;;;;-145.18;100.00;46633.06;5034641;28;20680;-62
2023/05/27 01:21:18;;;;;;;12.07;2.90;;;;;;;-145.18;100.00;46635.00;5034486;28;20742;-62
2023/05/27 01:23:47;;;;;;;9.07;2.60;;;;;;;-145.18;100.00;46656.50;5034871;28;20266;-63
2023/05/27 01:26:12;;;;;;;13.97;3.60;;;;;;;-145.18;100.00;46652.59;5034284;28;20267;-62
2023/05/27 01:28:38;;;;;;;12.70;2.87;;;;;;;-145.18;100.00;46660.41;5034141;28;20385;-63
2023/05/27 01:31:21;;;;;;;18.93;3.10;;;;;;;-145.18;100.00;46660.41;5034471;28;20071;-63
2023/05/27 01:33:58;;;;;;;15.03;3.23;;;;;;;-145.18;100.00;46681.88;5034731;28;20075;-63
2023/05/27 01:36:26;;;;;;;16.03;2.77;;;;;;;-145.18;100.00;46648.69;5034465;28;20255;-62
2023/05/27 01:38:52;;;;;;;19.23;3.40;;;;;;;-145.18;100.00;46660.41;5041850;28;20345;-62
2023/05/27 01:41:18;;;;;;;14.37;2.93;;;;;;;-145.18;100.00;46668.22;5054167;28;20266;-60
2023/05/27 01:43:44;;;;;;;10.63;2.67;;;;;;;-145.18;100.00;46668.22;5053093;28;20616;-63
2023/05/27 01:46:09;;;;;;;12.07;3.33;;;;;;;-145.18;100.00;46670.16;5046380;28;20039;-63
2023/05/27 01:48:35;;;;;;;17.30;3.13;;;;;;;-145.18;100.00;46677.97;5035913;28;20036;-62
2023/05/27 01:51:00;;;;;;;16.50;3.10;;;;;;;-145.18;100.00;46672.13;5042597;28;20464;-62
2023/05/27 01:53:25;;;;;;;10.87;4.27;;;;;;;-145.18;100.00;46672.13;5034135;28;20057;-63
2023/05/27 01:55:51;;;;;;;12.67;2.63;;;;;;;-145.18;100.00;46674.06;5034035;28;20179;-63
2023/05/27 01:58:16;;;;;;;16.40;3.37;;;;;;;-145.18;100.00;46676.03;5033620;28;20040;-62
2023/05/27 02:00:42;;;;;;;18.37;3.20;;;;;;;-145.18;100.00;46677.97;5015845;28;20037;-62
2023/05/27 02:03:07;;;;;;;18.53;3.40;;;;;;;-145.18;100.00;46677.97;5033573;28;20029;-62
2023/05/27 02:05:33;;;;;;;12.20;3.60;;;;;;;-145.18;100.00;46689.69;5033987;28;20037;-62
2023/05/27 02:07:58;;;;;;;21.40;3.43;;;;;;;-145.18;100.00;46689.69;5033788;28;20033;-63
2023/05/27 02:10:23;;;;;;;10.40;3.37;;;;;;;-145.18;100.00;46691.66;5033707;28;20041;-62
2023/05/27 02:12:49;;;;;;;15.50;3.47;;;;;;;-145.18;100.00;46693.59;5045231;28;20033;-63
2023/05/27 02:15:15;;;;;;;20.03;3.57;;;;;;;-145.18;100.00;46691.66;5015672;28;20038;-63
2023/05/27 02:17:40;;;;;;;9.47;3.13;;;;;;;-145.18;100.00;46697.50;5036823;28;20032;-63
2023/05/27 02:20:06;;;;;;;16.43;3.60;;;;;;;-145.18;100.00;46697.50;5053475;28;20021;-63
2023/05/27 02:22:31;;;;;;;11.77;3.50;;;;;;;-145.18;100.00;46689.69;5053171;28;20471;-63
2023/05/27 02:24:57;;;;;;;11.20;3.07;;;;;;;-145.18;100.00;46697.50;5052711;28;20040;-62
2023/05/27 02:27:22;;;;;;;11.57;2.90;;;;;;;-145.18;100.00;46693.59;5048990;28;20072;-63
2023/05/27 02:29:48;;;;;;;14.43;3.63;;;;;;;-145.18;100.00;46693.59;5053195;28;20120;-63
2023/05/27 02:32:13;;;;;;;17.33;3.70;;;;;;;-145.18;100.00;46693.59;5034723;28;20061;-63
2023/05/27 02:34:40;;;;;;;10.43;3.47;;;;;;;-145.18;100.00;46693.59;5033346;28;20044;-63
2023/05/27 02:37:06;;;;;;;12.03;3.33;;;;;;;-145.18;100.00;46693.59;5033076;28;20395;-63
2023/05/27 02:39:31;;;;;;;9.27;3.20;;;;;;;-145.18;100.00;46697.50;5033002;28;20251;-63
2023/05/27 02:41:57;;;;;;;13.77;3.30;;;;;;;-145.18;100.00;46691.66;5033217;28;20179;-63
2023/05/27 02:44:22;;;;;;;14.13;3.97;;;;;;;-145.18;100.00;46693.59;5015175;28;20030;-62
2023/05/27 02:46:47;;;;;;;21.43;3.90;;;;;;;-145.18;100.00;46695.56;5032672;28;20059;-63
2023/05/27 02:49:13;;;;;;;17.70;4.10;;;;;;;-145.18;100.00;46691.66;5032966;28;20434;-62
2023/05/27 02:51:38;;;;;;;14.97;4.10;;;;;;;-145.18;100.00;46693.59;5010806;28;20041;-62
2023/05/27 02:54:04;;;;;;;16.70;4.50;;;;;;;-145.18;100.00;46695.56;5014997;28;20388;-63
2023/05/27 02:56:29;;;;;;;14.10;3.33;;;;;;;-145.18;100.00;46689.69;5044411;28;20032;-63
2023/05/27 02:58:54;;;;;;;19.47;3.47;;;;;;;-145.18;100.00;46691.66;5052472;28;20048;-63
2023/05/27 03:01:20;;;;;;;14.57;3.27;;;;;;;-145.18;100.00;46687.75;5034637;28;20061;-62
2023/05/27 03:03:46;;;;;;;11.20;3.47;;;;;;;-145.18;100.00;46693.59;5034756;28;20115;-62
2023/05/27 03:06:11;;;;;;;13.57;3.13;;;;;;;-145.18;100.00;46689.69;5052778;28;20140;-62
2023/05/27 03:08:36;;;;;;;11.17;3.27;;;;;;;-145.18;100.00;46691.66;5030618;28;20036;-63
2023/05/27 03:11:02;;;;;;;10.57;3.17;;;;;;;-145.18;100.00;46685.78;5018242;28;20557;-62
2023/05/27 03:13:27;;;;;;;15.80;4.30;;;;;;;-145.18;100.00;46695.56;5048234;28;20032;-62
2023/05/27 03:15:54;;;;;;;19.70;4.00;;;;;;;-145.18;100.00;46676.03;5052567;28;20041;-63
2023/05/27 03:18:20;;;;;;;14.50;3.63;;;;;;;-145.18;100.00;46689.69;5052372;28;20068;-62
2023/05/27 03:20:45;;;;;;;12.50;3.37;;;;;;;-145.18;100.00;46679.94;5052132;28;20357;-62
2023/05/27 03:23:10;;;;;;;13.60;3.53;;;;;;;-145.18;100.00;46691.66;5052331;28;20037;-62
2023/05/27 03:25:36;;;;;;;16.93;3.67;;;;;;;-145.18;100.00;46677.97;5052494;28;20111;-63
2023/05/27 03:28:01;;;;;;;12.73;3.70;;;;;;;-145.18;100.00;46679.94;5051164;28;20102;-62
2023/05/27 03:30:27;;;;;;;13.17;3.80;;;;;;;-145.18;100.00;46677.97;5034211;28;20051;-63
2023/05/27 03:32:52;;;;;;;15.60;3.03;;;;;;;-145.18;100.00;46679.94;5052359;28;20471;-62
2023/05/27 03:35:17;;;;;;;12.13;3.73;;;;;;;-145.18;100.00;46677.97;5037525;28;20034;-62
2023/05/27 03:37:43;;;;;;;14.13;3.13;;;;;;;-145.18;100.00;46679.94;5036251;28;20453;-63
2023/05/27 03:40:09;;;;;;;9.50;4.07;;;;;;;-145.18;100.00;46677.97;5032454;28;20035;-63
2023/05/27 03:42:35;;;;;;;20.10;3.40;;;;;;;-145.18;100.00;46685.78;5032310;28;20108;-63
2023/05/27 03:45:00;;;;;;;9.33;3.27;;;;;;;-145.18;100.00;46674.06;5032060;28;20043;-63
2023/05/27 03:47:26;;;;;;;12.13;3.10;;;;;;;-145.18;100.00;46670.16;5032144;28;20029;-63
2023/05/27 03:49:51;;;;;;;23.40;3.60;;;;;;;-145.18;100.00;46674.06;5032250;28;20036;-62
2023/05/27 03:52:17;;;;;;;16.30;3.53;;;;;;;-145.18;100.00;46670.16;5030541;28;20574;-62
2023/05/27 03:54:42;;;;;;;18.73;4.33;;;;;;;-145.18;100.00;46674.06;5037249;28;20112;-62
2023/05/27 03:57:08;;;;;;;18.33;4.00;;;;;;;-145.18;100.00;46676.03;5040923;28;20036;-62
2023/05/27 03:59:33;;;;;;;19.10;4.37;;;;;;;-145.18;100.00;46672.13;5031780;28;20033;-62
2023/05/27 04:01:59;;;;;;;17.10;3.73;;;;;;;-145.18;100.00;46672.13;5031800;28;20033;-62
2023/05/27 04:04:25;;;;;;;20.37;3.90;;;;;;;-145.18;100.00;46672.13;5014379;28;20038;-62
2023/05/27 04:06:50;;;;;;;20.57;4.00;;;;;;;-145.18;100.00;46668.22;5037085;28;20068;-63
2023/05/27 04:09:16;;;;;;;11.37;3.53;;;;;;;-145.18;100.00;46670.16;5039350;28;20029;-63
2023/05/27 04:11:41;;;;;;;16.23;4.40;;;;;;;-145.18;100.00;46664.31;5037487;28;20030;-63
2023/05/27 04:14:07;;;;;;;17.07;3.80;;;;;;;-145.18;100.00;46676.03;5032587;28;20038;-62
2023/05/27 04:16:33;;;;;;;12.47;4.17;;;;;;;-145.18;100.00;46672.13;5031500;28;20037;-63
2023/05/27 04:18:59;;;;;;;11.07;3.63;;;;;;;-145.18;100.00;46668.22;5031231;28;20640;-62
2023/05/27 04:21:25;;;;;;;14.33;3.40;;;;;;;-145.18;100.00;46670.16;5031652;28;20285;-63
2023/05/27 04:23:50;;;;;;;17.13;3.53;;;;;;;-145.18;100.00;46668.22;5031352;28;20345;-63
2023/05/27 04:26:16;;;;;;;14.53;3.47;;;;;;;-145.18;100.00;46668.22;5013707;28;20029;-63
2023/05/27 04:28:41;;;;;;;11.73;3.53;;;;;;;-145.18;100.00;46670.16;5031040;28;20068;-63
2023/05/27 04:31:12;;;;;;;15.00;3.70;;;;;;;-145.18;100.00;46672.13;5033192;28;20038;-63
2023/05/27 04:33:46;;;;;;;14.60;3.23;;;;;;;-145.18;100.00;46664.31;5029193;28;20029;-63
2023/05/27 04:36:12;;;;;;;8.68;3.50;;;;;;;-145.18;100.00;46672.13;5014829;28;20258;-63
2023/05/27 04:38:38;;;;;;;19.07;5.23;;;;;;;-145.18;100.00;46666.25;5035808;28;20048;-63
2023/05/27 04:41:03;;;;;;;13.00;3.97;;;;;;;-145.18;100.00;46670.16;5022206;28;20024;-63
2023/05/27 04:43:30;;;;;;;11.50;3.53;;;;;;;-145.18;100.00;46660.41;5039261;28;20030;-63
2023/05/27 04:45:59;;;;;;;28.10;4.00;;;;;;;-145.18;100.00;46662.34;5043069;28;20069;-63
2023/05/27 04:48:24;;;;;;;12.50;4.03;;;;;;;-145.18;100.00;46672.13;5045161;28;20265;-63
2023/05/27 04:50:53;;;;;;;18.90;4.27;;;;;;;-145.18;100.00;46670.16;5044866;28;20278;-63
2023/05/27 04:53:18;;;;;;;13.30;3.97;;;;;;;-145.18;100.00;46660.41;5038388;28;20089;-62
2023/05/27 04:55:44;;;;;;;19.33;3.80;;;;;;;-145.18;100.00;46674.06;5035823;28;20251;-63
2023/05/27 04:58:10;;;;;;;10.87;4.03;;;;;;;-145.18;100.00;46668.22;5038952;28;20434;-62
2023/05/27 05:00:52;;;;;;;12.20;3.70;;;;;;;-145.18;100.00;46666.25;5019541;28;20044;-63
2023/05/27 05:03:22;;;;;;;24.67;4.83;;;;;;;-145.18;100.00;46670.16;5044221;28;20031;-63
2023/05/27 05:05:51;;;;;;;15.37;4.03;;;;;;;-145.18;100.00;46672.13;5041012;28;20269;-63
2023/05/27 05:08:16;;;;;;;9.63;3.60;;;;;;;-145.18;100.00;46670.16;5054659;28;20333;-63
2023/05/27 05:10:42;;;;;;;16.07;4.20;;;;;;;-145.18;100.00;46666.25;5038949;28;20292;-63
2023/05/27 05:13:07;;;;;;;22.37;3.93;;;;;;;-145.18;100.00;46666.25;5047086;28;20095;-63
2023/05/27 05:15:34;;;;;;;13.60;3.63;;;;;;;-145.18;100.00;46668.22;5032216;28;20530;-63
2023/05/27 05:17:59;;;;;;;19.43;4.57;;;;;;;-145.18;100.00;46672.13;5038212;28;20047;-63
2023/05/27 05:20:25;;;;;;;17.00;4.00;;;;;;;-145.18;100.00;46668.22;5038596;28;20636;-63
2023/05/27 05:22:50;;;;;;;23.00;5.40;;;;;;;-145.18;100.00;46664.31;5039092;28;20039;-63
2023/05/27 05:25:16;;;;;;;13.03;4.13;;;;;;;-145.18;100.00;46666.25;5042443;28;20111;-63
2023/05/27 05:27:42;;;;;;;8.80;3.50;;;;;;;-145.18;100.00;46666.25;5041656;28;20061;-63
2023/05/27 05:30:08;;;;;;;16.97;3.93;;;;;;;-145.18;100.00;46666.25;5039893;28;20034;-63
2023/05/27 05:32:33;;;;;;;14.83;3.57;;;;;;;-145.18;100.00;46666.25;5035650;28;20091;-62
2023/05/27 05:34:58;;;;;;;12.70;3.67;;;;;;;-145.18;100.00;46666.25;5040402;28;20136;-62
2023/05/27 05:37:24;;;;;;;16.83;4.00;;;;;;;-145.18;100.00;46664.31;5023536;28;20037;-63
2023/05/27 05:39:49;;;;;;;20.73;4.30;;;;;;;-145.18;100.00;46668.22;5028792;28;20099;-63
2023/05/27 05:42:15;;;;;;;18.33;5.30;;;;;;;-145.18;100.00;46662.34;5033836;28;20131;-63
2023/05/27 05:44:41;;;;;;;17.20;4.17;;;;;;;-145.18;100.00;46658.44;5033630;28;20026;-63
2023/05/27 05:47:06;;;;;;;14.50;3.57;;;;;;;-145.18;100.00;46660.41;5066527;28;20267;-63
2023/05/27 05:49:32;;;;;;;8.47;3.63;;;;;;;-145.18;100.00;46658.44;5048041;28;20033;-63
2023/05/27 05:51:57;;;;;;;10.43;3.90;;;;;;;-145.18;100.00;46656.50;5016772;28;20034;-63
2023/05/27 05:54:23;;;;;;;16.10;4.87;;;;;;;-145.18;100.00;46648.69;5045359;28;20029;-63
2023/05/27 05:56:48;;;;;;;15.50;4.43;;;;;;;-145.18;100.00;46640.88;5044911;28;20486;-63
2023/05/27 05:59:14;;;;;;;14.47;3.93;;;;;;;-145.18;100.00;46642.81;5010241;28;20095;-63
2023/05/27 06:01:39;;;;;;;10.93;3.50;;;;;;;-145.18;100.00;46633.06;5027553;28;20045;-63
2023/05/27 06:04:06;;;;;;;12.43;3.17;;;;;;;-145.18;100.00;46627.19;5033284;28;20044;-63
2023/05/27 06:06:31;;;;;;;17.07;3.93;;;;;;;-145.18;100.00;46613.50;5030454;28;20037;-63
2023/05/27 06:08:57;;;;;;;19.37;4.40;;;;;;;-145.18;100.00;46595.94;5033268;28;21521;-63
2023/05/27 06:11:22;;;;;;;15.80;3.87;;;;;;;-145.18;100.00;46603.75;5028274;28;20033;-63
2023/05/27 06:13:48;;;;;;;12.87;3.70;;;;;;;-145.18;100.00;46595.94;5034744;28;20466;-63
2023/05/27 06:16:13;;;;;;;16.37;3.63;;;;;;;-145.18;100.00;46592.03;5041026;28;20506;-63
2023/05/27 06:18:38;;;;;;;12.53;4.10;;;;;;;-145.18;100.00;46578.34;5019841;28;20102;-63
2023/05/27 06:21:04;;;;;;;15.40;4.63;;;;;;;-145.18;100.00;46574.44;5027569;28;20055;-63
2023/05/27 06:23:29;;;;;;;11.20;3.93;;;;;;;-145.18;100.00;46570.53;5014309;28;20934;-62
2023/05/27 06:25:55;;;;;;;17.63;4.07;;;;;;;-145.18;100.00;46564.69;5034369;28;20800;-63
2023/05/27 06:28:21;;;;;;;11.77;4.03;;;;;;;-145.18;100.00;46552.97;5028223;28;20142;-63
2023/05/27 06:30:46;;;;;;;12.27;4.00;;;;;;;-145.18;100.00;46547.09;5036029;28;20377;-63
2023/05/27 06:33:12;;;;;;;12.37;4.93;;;;;;;-145.18;100.00;46551.00;5030469;28;20776;-63
2023/05/27 06:35:37;;;;;;;16.70;4.10;;;;;;;-145.18;100.00;46539.28;5033294;28;20033;-63
2023/05/27 06:38:03;;;;;;;25.43;5.17;;;;;;;-145.18;100.00;46539.28;5033258;28;20033;-63
2023/05/27 06:40:28;;;;;;;12.93;4.63;;;;;;;-145.18;100.00;46537.34;5041879;28;20032;-63
2023/05/27 06:42:54;;;;;;;13.13;4.03;;;;;;;-145.18;100.00;46533.44;5031894;28;20034;-63
2023/05/27 06:45:19;;;;;;;26.03;4.37;;;;;;;-145.18;100.00;46539.28;5016204;28;20459;-63
2023/05/27 06:47:45;;;;;;;12.30;4.10;;;;;;;-145.18;100.00;46537.34;5038981;28;20282;-63
2023/05/27 06:50:10;;;;;;;10.93;4.03;;;;;;;-145.18;100.00;46535.38;5037947;28;20057;-63
2023/05/27 06:52:36;;;;;;;14.50;3.97;;;;;;;-145.18;100.00;46535.38;5052644;28;20473;-63
2023/05/27 06:55:01;;;;;;;15.00;4.47;;;;;;;-145.18;100.00;46535.38;5049485;28;20036;-63
2023/05/27 06:57:27;;;;;;;16.70;4.27;;;;;;;-145.18;100.00;46535.38;5038370;28;20029;-63
2023/05/27 06:59:52;;;;;;;16.93;3.87;;;;;;;-145.18;100.00;46535.38;5037387;28;20018;-63
2023/05/27 07:02:18;;;;;;;15.30;4.50;;;;;;;-145.18;100.00;46539.28;5046791;28;20032;-63
2023/05/27 07:04:43;;;;;;;12.97;4.90;;;;;;;-145.18;100.00;46537.34;5035917;28;20054;-63
2023/05/27 07:07:08;;;;;;;14.20;4.60;;;;;;;-145.18;100.00;46535.38;5030476;28;20375;-62
2023/05/27 07:09:34;;;;;;;15.87;4.47;;;;;;;-145.18;100.00;46541.25;5033095;28;20029;-63
2023/05/27 07:12:01;;;;;;;11.43;4.27;;;;;;;-145.18;100.00;46537.34;5017609;28;20108;-62
2023/05/27 07:14:27;;;;;;;17.23;4.47;;;;;;;-145.18;100.00;46543.19;5030217;28;20103;-63
2023/05/27 07:16:52;;;;;;;12.30;4.73;;;;;;;-145.18;100.00;46547.09;5047922;28;20845;-62
2023/05/27 07:19:20;;;;;;;12.87;3.93;;;;;;;-145.18;100.00;46547.09;5028601;28;20030;-63
2023/05/27 07:21:45;;;;;;;16.50;4.50;;;;;;;-145.18;100.00;46539.28;5009277;28;20565;-62
2023/05/27 07:24:11;;;;;;;11.87;4.17;;;;;;;-145.18;100.00;46551.00;5014470;28;20278;-63
2023/05/27 07:26:36;;;;;;;14.50;4.00;;;;;;;-145.18;100.00;46551.00;5006706;28;20127;-63
2023/05/27 07:29:04;;;;;;;16.87;4.40;;;;;;;-145.18;100.00;46549.06;5038192;28;20051;-63
2023/05/27 07:31:29;;;;;;;14.77;4.47;;;;;;;-145.18;100.00;46552.97;5029549;28;20029;-63
2023/05/27 07:33:55;;;;;;;20.53;5.13;;;;;;;-145.18;100.00;46556.88;5035371;28;20048;-62
2023/05/27 07:36:21;;;;;;;10.43;4.23;;;;;;;-145.18;100.00;46552.97;5030361;28;20044;-63
2023/05/27 07:38:46;;;;;;;12.77;3.93;;;;;;;-145.18;100.00;46560.78;5035836;28;20558;-63
2023/05/27 07:41:13;;;;;;;16.53;3.53;;;;;;;-145.18;100.00;46556.88;5043138;28;20526;-63
2023/05/27 07:43:38;;;;;;;11.47;3.97;;;;;;;-145.18;100.00;46558.81;5033523;28;20029;-63
2023/05/27 07:46:04;;;;;;;13.70;4.13;;;;;;;-145.18;100.00;46566.63;5032348;28;20045;-63
2023/05/27 07:48:29;;;;;;;12.27;3.77;;;;;;;-145.18;100.00;46566.63;5038542;28;20033;-63
2023/05/27 07:50:55;;;;;;;15.20;4.43;;;;;;;-145.18;100.00;46566.63;5036273;28;20044;-63
2023/05/27 07:53:20;;;;;;;10.93;4.20;;;;;;;-145.18;100.00;46574.44;5036219;28;20029;-63
2023/05/27 07:55:46;;;;;;;18.57;4.43;;;;;;;-145.18;100.00;46574.44;5034265;28;20045;-63
2023/05/27 07:58:11;;;;;;;12.17;4.00;;;;;;;-145.18;100.00;46564.69;5030586;28;20034;-63
2023/05/27 08:00:37;;;;;;;13.57;3.80;;;;;;;-145.18;100.00;46566.63;5033468;28;20022;-63
2023/05/27 08:03:02;;;;;;;17.60;4.27;;;;;;;-145.18;100.00;46574.44;5031336;28;20450;-63
2023/05/27 08:05:28;;;;;;;13.73;4.07;;;;;;;-145.18;100.00;46562.72;5014244;28;20080;-63
2023/05/27 08:07:53;;;;;;;15.07;4.47;;;;;;;-145.18;100.00;46568.59;5038009;28;20039;-63
2023/05/27 08:10:18;;;;;;;17.17;5.30;;;;;;;-145.18;100.00;46560.78;5030945;28;20112;-63
2023/05/27 08:12:44;;;;;;;15.83;4.00;;;;;;;-145.18;100.00;46564.69;5015698;28;20049;-63
2023/05/27 08:15:09;;;;;;;16.33;4.97;;;;;;;-145.18;100.00;46580.31;5034533;28;20107;-63
2023/05/27 08:17:35;;;;;;;12.60;4.03;;;;;;;-145.18;100.00;46582.25;5030950;28;20124;-63
2023/05/27 08:20:00;;;;;;;15.40;3.80;;;;;;;-145.18;100.00;46590.06;5030839;28;20792;-64
2023/05/27 08:22:26;;;;;;;15.77;4.27;;;;;;;-145.18;100.00;46588.13;5033500;28;20031;-63
2023/05/27 08:24:51;;;;;;;18.80;4.30;;;;;;;-145.18;100.00;46609.59;5013624;28;20124;-63
2023/05/27 08:27:17;;;;;;;16.77;4.50;;;;;;;-145.18;100.00;46603.75;5017606;28;20034;-64
2023/05/27 08:29:43;;;;;;;15.93;4.03;;;;;;;-145.18;100.00;46619.38;5042750;28;20228;-63
2023/05/27 08:32:09;;;;;;;17.70;4.17;;;;;;;-145.18;100.00;46633.06;5019089;28;20291;-64
2023/05/27 08:34:34;;;;;;;14.57;4.93;;;;;;;-145.18;100.00;46635.00;5034644;28;20441;-64
2023/05/27 08:37:01;;;;;;;17.67;4.23;;;;;;;-145.18;100.00;46642.81;5037691;28;20033;-64
2023/05/27 08:39:27;;;;;;;16.40;4.07;;;;;;;-145.18;100.00;46638.91;5035390;28;20039;-64
2023/05/27 08:41:53;;;;;;;13.90;4.43;;;;;;;-145.18;100.00;46625.22;5036066;28;20112;-64
2023/05/27 08:44:21;;;;;;;17.77;4.63;;;;;;;-145.18;100.00;46636.94;5041314;28;20033;-64
2023/05/27 08:46:50;;;;;;;13.33;3.80;;;;;;;-145.18;100.00;46635.00;5037088;28;20490;-64
2023/05/27 08:49:16;;;;;;;14.40;5.07;;;;;;;-145.18;100.00;46644.78;5047809;28;20029;-64
2023/05/27 08:51:41;;;;;;;16.97;4.60;;;;;;;-145.18;100.00;46636.94;5042240;28;20052;-64
2023/05/27 08:54:10;;;;;;;17.03;4.63;;;;;;;-145.18;100.00;46611.56;5034006;28;20569;-64
2023/05/27 08:56:36;;;;;;;14.50;4.53;;;;;;;-145.18;100.00;46640.88;5037819;28;20055;-64
2023/05/27 08:59:02;;;;;;;15.90;5.17;;;;;;;-145.18;100.00;46676.03;5037219;28;20037;-64
2023/05/27 09:01:30;;;;;;;15.80;4.43;;;;;;;-145.18;100.00;46638.91;5041722;28;20495;-64
2023/05/27 09:03:56;;;;;;;11.87;4.27;;;;;;;-145.18;100.00;46668.22;5021336;28;20037;-64
2023/05/27 09:06:22;;;;;;;16.33;4.47;;;;;;;-145.18;100.00;46699.47;5039090;28;20414;-64
2023/05/27 09:08:47;;;;;;;13.17;5.00;;;;;;;-145.18;100.00;46689.69;5037266;28;20044;-64
2023/05/27 09:11:23;;;;;;;8.87;4.10;;;;;;;-145.18;100.00;46808.84;5042361;28;20116;-64
2023/05/27 09:13:48;;;;;;;;;;;;;;;-145.18;100.00;46943.63;5037873;28;20506;-64
2023/05/27 09:16:14;;;;;;;15.23;4.30;;;;;;;-145.18;100.00;46998.34;5039130;28;19917;-64
2023/05/27 09:18:41;;;;;;;12.33;4.00;;;;;;;-145.18;100.00;47158.53;5039246;28;20037;-64
2023/05/27 09:21:06;;;;;;;19.27;5.67;;;;;;;-145.18;100.00;47240.56;5033549;28;20021;-64
2023/05/27 09:23:37;;;;;;;22.50;5.50;;;;;;;-145.18;100.00;47246.44;5044351;28;20028;-64
2023/05/27 09:26:10;;;;;;;12.07;4.60;;;;;;;-145.18;100.00;47291.38;5058874;28;20501;-64
2023/05/27 09:28:37;;;;;;;10.40;4.40;;;;;;;-145.18;100.00;47209.31;5042212;28;20041;-64
2023/05/27 09:31:07;;;;;;;21.47;4.83;;;;;;;-145.18;100.00;47279.66;5050634;28;20029;-64
2023/05/27 09:33:35;;;;;;;17.17;5.23;;;;;;;-145.18;100.00;47254.25;5052785;28;20078;-64
2023/05/27 09:36:01;;;;;;;17.43;4.50;;;;;;;-145.18;100.00;47248.41;5053476;28;20079;-64
2023/05/27 09:38:31;;;;;;;20.80;5.23;;;;;;;-145.18;100.00;47203.47;5047361;28;20574;-64
2023/05/27 09:41:00;;;;;;;14.83;4.87;;;;;;;-145.18;100.00;47164.38;5049887;28;20029;-64
2023/05/27 09:43:27;;;;;;;14.77;5.20;;;;;;;-145.18;100.00;47168.28;5058411;28;20562;-64
2023/05/27 09:46:01;;;;;;;14.90;4.93;;;;;;;-145.18;100.00;47170.25;5049761;28;20033;-64
2023/05/27 09:48:29;;;;;;;12.70;5.07;;;;;;;-145.18;100.00;47181.97;5051681;28;20111;-64
2023/05/27 09:50:56;;;;;;;16.77;4.83;;;;;;;-145.18;100.00;47176.09;5044250;28;20036;-64
2023/05/27 09:53:23;;;;;;;12.50;5.03;;;;;;;-145.18;100.00;47148.75;5052295;28;20037;-64
2023/05/27 09:55:49;;;;;;;14.77;4.57;;;;;;;-145.18;100.00;47152.66;5049729;28;20061;-64
2023/05/27 09:58:15;;;;;;;11.27;4.47;;;;;;;-145.18;100.00;47152.66;5050788;28;20048;-64
2023/05/27 10:00:44;;;;;;;15.37;5.27;;;;;;;-145.18;100.00;47137.03;5047258;28;20033;-64
2023/05/27 10:03:10;;;;;;;14.80;5.30;;;;;;;-145.18;100.00;47135.09;5036960;28;20036;-64
2023/05/27 10:05:36;;;;;;;16.13;4.77;;;;;;;-145.18;100.00;47133.13;5029527;28;20021;-64
2023/05/27 10:08:02;;;;;;;13.73;4.93;;;;;;;-145.18;100.00;47131.19;5029047;28;20475;-64
2023/05/27 10:10:28;;;;;;;20.43;5.90;;;;;;;-145.18;100.00;47152.66;5031600;28;20140;-63
2023/05/27 10:12:54;;;;;;;18.77;5.00;;;;;;;-145.18;100.00;47121.41;5043408;28;20037;-64
2023/05/27 10:15:23;;;;;;;12.97;4.70;;;;;;;-145.18;100.00;47113.59;5038228;28;20100;-64
2023/05/27 10:17:52;;;;;;;17.03;5.17;;;;;;;-145.18;100.00;47121.41;5018178;28;20111;-64
2023/05/27 10:20:30;;;;;;;16.57;5.33;;;;;;;-145.18;100.00;47113.59;5031748;28;20057;-64
2023/05/27 10:23:09;;;;;;;12.77;5.50;;;;;;;-145.18;100.00;47111.66;5034626;28;20501;-64
2023/05/27 10:25:37;;;;;;;12.83;5.13;;;;;;;-145.18;100.00;47119.47;5035030;28;20064;-64
2023/05/27 10:28:02;;;;;;;8.57;3.80;;;;;;;-145.18;100.00;47113.59;5036390;28;20021;-64
2023/05/27 10:30:27;;;;;;;12.63;5.53;;;;;;;-145.18;100.00;47103.81;5012540;28;20537;-64
2023/05/27 10:32:54;;;;;;;18.47;5.27;;;;;;;-145.18;100.00;47107.72;5015531;28;20048;-64
2023/05/27 10:35:19;;;;;;;14.77;4.77;;;;;;;-145.18;100.00;47094.06;5031955;28;20043;-64
2023/05/27 10:37:46;;;;;;;14.20;5.60;;;;;;;-145.18;100.00;47109.69;5035803;28;20406;-64
2023/05/27 10:40:12;;;;;;;14.37;5.47;;;;;;;-145.18;100.00;47092.09;5040941;28;20075;-64
2023/05/27 10:42:38;;;;;;;16.30;4.80;;;;;;;-145.18;100.00;47094.06;5011589;28;20417;-64
2023/05/27 10:45:05;;;;;;;14.13;4.13;;;;;;;-145.18;100.00;47080.38;5030640;28;20525;-63
2023/05/27 10:47:35;;;;;;;12.37;4.60;;;;;;;-145.18;100.00;47088.19;5033630;28;20034;-64
2023/05/27 10:50:11;;;;;;;11.50;4.47;;;;;;;-145.18;100.00;47080.38;5042652;28;20041;-65
2023/05/27 10:52:38;;;;;;;11.30;4.47;;;;;;;-145.18;100.00;47080.38;5032324;28;20033;-65
2023/05/27 10:55:05;;;;;;;11.73;4.47;;;;;;;-145.18;100.00;47080.38;5036158;28;20423;-64
2023/05/27 10:57:31;;;;;;;14.93;5.27;;;;;;;-145.18;100.00;47068.66;5035378;28;20395;-65
2023/05/27 11:00:03;;;;;;;18.70;5.93;;;;;;;-145.18;100.00;47078.44;5031991;28;20036;-64